createdAt,value
2016-10-18T00:00:48.569Z,1005.47
2016-10-18T00:01:58.239Z,1005.47
2016-10-18T00:03:08.262Z,1005.47
2016-10-18T00:04:18.600Z,1005.47
2016-10-18T00:05:28.620Z,1005.47
2016-10-18T00:06:38.938Z,1005.44
2016-10-18T00:07:48.928Z,1005.44
2016-10-18T00:08:59.225Z,1005.45
2016-10-18T00:10:08.898Z,1005.46
2016-10-18T00:11:19.222Z,1005.44
2016-10-18T00:12:29.520Z,1005.4
2016-10-18T00:13:39.809Z,1005.4
2016-10-18T00:14:50.110Z,1005.43
2016-10-18T00:16:00.127Z,1005.43
2016-10-18T00:17:10.423Z,1005.43
2016-10-18T00:18:20.406Z,1005.44
2016-10-18T00:19:30.418Z,1005.45
2016-10-18T00:20:40.714Z,1005.43
2016-10-18T00:21:50.990Z,1005.42
2016-10-18T00:23:01.314Z,1005.44
2016-10-18T00:24:11.635Z,1005.41
2016-10-18T00:25:21.934Z,1005.4
2016-10-18T00:26:32.242Z,1005.39
2016-10-18T00:27:42.566Z,1005.36
2016-10-18T00:28:52.538Z,1005.38
2016-10-18T00:30:02.514Z,1005.42
2016-10-18T00:31:12.495Z,1005.38
2016-10-18T00:32:22.782Z,1005.4
2016-10-18T00:33:32.790Z,1005.4
2016-10-18T00:34:42.780Z,1005.35
2016-10-18T00:35:52.772Z,1005.38
2016-10-18T00:37:02.755Z,1005.4
2016-10-18T00:38:12.741Z,1005.35
2016-10-18T00:39:22.418Z,1005.33
2016-10-18T00:40:32.701Z,1005.28
2016-10-18T00:41:42.047Z,1005.31
2016-10-18T00:42:52.352Z,1005.29
2016-10-18T00:44:02.334Z,1005.3
2016-10-18T00:45:12.310Z,1005.32
2016-10-18T00:46:22.284Z,1005.34
2016-10-18T00:47:32.591Z,1005.31
2016-10-18T00:48:42.903Z,1005.39
2016-10-18T00:49:52.560Z,1005.32
2016-10-18T00:51:02.855Z,1005.35
2016-10-18T00:52:13.161Z,1005.36
2016-10-18T00:53:23.445Z,1005.33
2016-10-18T00:54:33.724Z,1005.38
2016-10-18T00:55:43.713Z,1005.33
2016-10-18T00:56:53.385Z,1005.33
2016-10-18T00:58:03.666Z,1005.4
2016-10-18T00:59:13.943Z,1005.36
2016-10-18T01:00:23.840Z,1005.37
2016-10-18T01:01:33.214Z,1005.41
2016-10-18T01:02:43.198Z,1005.38
2016-10-18T01:03:53.491Z,1005.39
2016-10-18T01:05:03.463Z,1005.37
2016-10-18T01:06:13.626Z,1005.4
2016-10-18T01:07:23.611Z,1005.42
2016-10-18T01:08:33.903Z,1005.38
2016-10-18T01:09:44.178Z,1005.36
2016-10-18T01:10:54.456Z,1005.38
2016-10-18T01:12:04.447Z,1005.33
2016-10-18T01:13:14.755Z,1005.31
2016-10-18T01:14:24.731Z,1005.34
2016-10-18T01:15:35.018Z,1005.36
2016-10-18T01:16:45.359Z,1005.33
2016-10-18T01:17:55.656Z,1005.32
2016-10-18T01:19:05.365Z,1005.34
2016-10-18T01:20:15.640Z,1005.28
2016-10-18T01:21:25.782Z,1005.3
2016-10-18T01:22:36.071Z,1005.25
2016-10-18T01:23:46.085Z,1005.27
2016-10-18T01:24:56.378Z,1005.36
2016-10-18T01:26:06.664Z,1005.31
2016-10-18T01:27:16.950Z,1005.35
2016-10-18T01:28:27.293Z,1005.3
2016-10-18T01:29:37.584Z,1005.31
2016-10-18T01:30:47.869Z,1005.34
2016-10-18T01:31:57.840Z,1005.34
2016-10-18T01:33:08.134Z,1005.29
2016-10-18T01:34:18.098Z,1005.3
2016-10-18T01:35:28.080Z,1005.31
2016-10-18T01:36:38.376Z,1005.32
2016-10-18T01:37:48.662Z,1005.28
2016-10-18T01:38:58.633Z,1005.3
2016-10-18T01:40:08.622Z,1005.32
2016-10-18T01:41:18.602Z,1005.34
2016-10-18T01:42:28.630Z,1005.3
2016-10-18T01:43:38.911Z,1005.29
2016-10-18T01:44:48.882Z,1005.33
2016-10-18T01:45:58.855Z,1005.33
2016-10-18T01:47:09.150Z,1005.28
2016-10-18T01:48:18.821Z,1005.3
2016-10-18T01:49:28.181Z,1005.31
2016-10-18T01:50:38.465Z,1005.29
2016-10-18T01:51:48.742Z,1005.32
2016-10-18T01:52:58.759Z,1005.26
2016-10-18T01:54:09.060Z,1005.3
2016-10-18T01:55:19.042Z,1005.28
2016-10-18T01:56:29.026Z,1005.3
2016-10-18T01:57:39.026Z,1005.3
2016-10-18T01:58:49.002Z,1005.26
2016-10-18T01:59:58.994Z,1005.28
2016-10-18T02:01:08.681Z,1005.26
2016-10-18T02:02:18.966Z,1005.26
2016-10-18T02:03:29.286Z,1005.26
2016-10-18T02:04:39.617Z,1005.24
2016-10-18T02:05:49.592Z,1005.28
2016-10-18T02:06:59.884Z,1005.26
2016-10-18T02:08:10.180Z,1005.21
2016-10-18T02:09:20.159Z,1005.27
2016-10-18T02:10:30.498Z,1005.24
2016-10-18T02:11:40.782Z,1005.27
2016-10-18T02:12:50.743Z,1005.25
2016-10-18T02:14:01.028Z,1005.3
2016-10-18T02:15:11.007Z,1005.32
2016-10-18T02:16:21.306Z,1005.28
2016-10-18T02:17:31.289Z,1005.24
2016-10-18T02:18:41.636Z,1005.27
2016-10-18T02:19:51.913Z,1005.29
2016-10-18T02:21:02.245Z,1005.24
2016-10-18T02:22:12.250Z,1005.26
2016-10-18T02:23:22.544Z,1005.3
2016-10-18T02:24:32.522Z,1005.28
2016-10-18T02:25:42.821Z,1005.23
2016-10-18T02:26:53.107Z,1005.26
2016-10-18T02:28:03.390Z,1005.24
2016-10-18T02:29:12.755Z,1005.23
2016-10-18T02:30:22.723Z,1005.24
2016-10-18T02:31:33.044Z,1005.27
2016-10-18T02:32:43.362Z,1005.28
2016-10-18T02:33:53.345Z,1005.29
2016-10-18T02:35:03.329Z,1005.3
2016-10-18T02:36:13.321Z,1005.28
2016-10-18T02:37:23.298Z,1005.32
2016-10-18T02:38:33.262Z,1005.28
2016-10-18T02:39:43.593Z,1005.33
2016-10-18T02:40:53.273Z,1005.28
2016-10-18T02:42:03.801Z,1005.28
2016-10-18T02:43:13.777Z,1005.25
2016-10-18T02:44:23.758Z,1005.29
2016-10-18T02:45:34.041Z,1005.31
2016-10-18T02:46:44.017Z,1005.29
2016-10-18T02:47:54.297Z,1005.29
2016-10-18T02:49:04.269Z,1005.29
2016-10-18T02:50:14.248Z,1005.3
2016-10-18T02:51:23.912Z,1005.24
2016-10-18T02:52:33.580Z,1005.3
2016-10-18T02:53:43.557Z,1005.31
2016-10-18T02:54:53.834Z,1005.3
2016-10-18T02:56:03.806Z,1005.35
2016-10-18T02:57:14.121Z,1005.32
2016-10-18T02:58:24.394Z,1005.33
2016-10-18T02:59:34.110Z,1005.31
2016-10-18T03:00:44.086Z,1005.26
2016-10-18T03:33:07.618Z,1005.26
2016-10-18T03:34:17.585Z,1005.29
2016-10-18T03:35:27.559Z,1005.27
2016-10-18T03:36:37.523Z,1005.25
2016-10-18T03:37:47.185Z,1005.25
2016-10-18T03:38:57.496Z,1005.26
2016-10-18T03:40:07.798Z,1005.28
2016-10-18T03:41:17.780Z,1005.3
2016-10-18T03:42:28.057Z,1005.29
2016-10-18T03:43:37.779Z,1005.3
2016-10-18T03:44:47.771Z,1005.34
2016-10-18T03:45:58.056Z,1005.33
2016-10-18T03:47:08.043Z,1005.3
2016-10-18T03:48:17.755Z,1005.29
2016-10-18T03:49:27.736Z,1005.31
2016-10-18T03:50:38.059Z,1005.33
2016-10-18T03:51:48.342Z,1005.31
2016-10-18T03:52:58.636Z,1005.36
2016-10-18T03:54:08.920Z,1005.29
2016-10-18T03:55:19.251Z,1005.33
2016-10-18T03:56:28.956Z,1005.31
2016-10-18T03:57:39.231Z,1005.31
2016-10-18T03:58:49.213Z,1005.29
2016-10-18T03:59:59.191Z,1005.3
2016-10-18T04:01:08.863Z,1005.32
2016-10-18T04:02:19.147Z,1005.31
2016-10-18T04:03:29.132Z,1005.36
2016-10-18T04:04:39.109Z,1005.35
2016-10-18T04:05:49.405Z,1005.36
2016-10-18T04:06:59.696Z,1005.32
2016-10-18T04:08:10.032Z,1005.31
2016-10-18T04:09:20.019Z,1005.29
2016-10-18T04:10:29.382Z,1005.33
2016-10-18T04:11:39.343Z,1005.32
2016-10-18T04:12:49.334Z,1005.3
2016-10-18T04:13:58.690Z,1005.28
2016-10-18T04:15:08.677Z,1005.29
2016-10-18T04:16:18.968Z,1005.3
2016-10-18T04:17:29.251Z,1005.28
2016-10-18T04:18:39.548Z,1005.24
2016-10-18T04:19:49.834Z,1005.27
2016-10-18T04:20:59.516Z,1005.23
2016-10-18T04:22:09.788Z,1005.25
2016-10-18T04:23:20.114Z,1005.25
2016-10-18T04:24:30.421Z,1005.29
2016-10-18T04:25:40.099Z,1005.27
2016-10-18T04:26:50.073Z,1005.26
2016-10-18T04:27:59.737Z,1005.3
2016-10-18T04:29:09.708Z,1005.28
2016-10-18T04:30:20.005Z,1005.28
2016-10-18T04:31:29.986Z,1005.26
2016-10-18T04:32:40.277Z,1005.25
2016-10-18T04:33:50.555Z,1005.29
2016-10-18T04:35:00.528Z,1005.29
2016-10-18T04:36:10.512Z,1005.26
2016-10-18T04:37:20.495Z,1005.23
2016-10-18T04:38:30.482Z,1005.26
2016-10-18T04:39:40.790Z,1005.29
2016-10-18T04:40:50.484Z,1005.26
2016-10-18T04:42:00.771Z,1005.27
2016-10-18T04:43:11.052Z,1005.25
2016-10-18T04:44:21.331Z,1005.23
2016-10-18T04:45:31.620Z,1005.24
2016-10-18T04:46:41.587Z,1005.27
2016-10-18T04:47:51.875Z,1005.25
2016-10-18T04:49:01.867Z,1005.25
2016-10-18T04:50:11.847Z,1005.27
2016-10-18T04:51:22.140Z,1005.3
2016-10-18T04:52:32.426Z,1005.27
2016-10-18T04:53:42.728Z,1005.31
2016-10-18T04:54:52.698Z,1005.3
2016-10-18T04:56:02.394Z,1005.31
2016-10-18T04:57:12.701Z,1005.36
2016-10-18T04:58:22.677Z,1005.35
2016-10-18T04:59:32.960Z,1005.32
2016-10-18T05:00:43.262Z,1005.27
2016-10-18T05:01:53.545Z,1005.33
2016-10-18T05:03:03.883Z,1005.34
2016-10-18T05:04:14.180Z,1005.3
2016-10-18T05:05:24.496Z,1005.25
2016-10-18T05:06:34.823Z,1005.29
2016-10-18T05:07:45.104Z,1005.24
2016-10-18T05:08:55.312Z,1005.29
2016-10-18T05:10:05.608Z,1005.29
2016-10-18T05:11:15.884Z,1005.27
2016-10-18T05:12:26.170Z,1005.28
2016-10-18T05:13:36.166Z,1005.24
2016-10-18T05:14:46.589Z,1005.26
2016-10-18T05:15:56.558Z,1005.25
2016-10-18T05:17:06.537Z,1005.23
2016-10-18T05:18:16.838Z,1005.28
2016-10-18T05:19:26.819Z,1005.26
2016-10-18T05:20:36.837Z,1005.26
2016-10-18T05:21:47.365Z,1005.25
2016-10-18T05:22:57.386Z,1005.29
2016-10-18T05:24:07.692Z,1005.3
2016-10-18T05:25:17.704Z,1005.32
2016-10-18T05:26:27.984Z,1005.32
2016-10-18T05:27:38.005Z,1005.32
2016-10-18T05:28:47.974Z,1005.36
2016-10-18T05:29:57.968Z,1005.36
2016-10-18T05:31:08.256Z,1005.4
2016-10-18T05:32:18.545Z,1005.43
2016-10-18T05:33:28.519Z,1005.4
2016-10-18T05:34:38.500Z,1005.44
2016-10-18T05:35:48.489Z,1005.41
2016-10-18T05:36:58.483Z,1005.45
2016-10-18T05:38:08.477Z,1005.48
2016-10-18T05:39:17.835Z,1005.47
2016-10-18T05:40:27.819Z,1005.5
2016-10-18T05:41:37.798Z,1005.55
2016-10-18T05:42:48.092Z,1005.59
2016-10-18T05:43:58.062Z,1005.55
2016-10-18T05:45:08.056Z,1005.55
2016-10-18T05:46:18.362Z,1005.53
2016-10-18T05:47:28.638Z,1005.6
2016-10-18T05:48:38.924Z,1005.57
2016-10-18T05:49:49.215Z,1005.61
2016-10-18T05:50:59.501Z,1005.59
2016-10-18T05:52:09.176Z,1005.61
2016-10-18T05:53:19.153Z,1005.64
2016-10-18T05:54:29.150Z,1005.64
2016-10-18T05:55:38.816Z,1005.6
2016-10-18T05:56:48.169Z,1005.6
2016-10-18T05:57:58.160Z,1005.63
2016-10-18T05:59:08.475Z,1005.66
2016-10-18T06:00:17.858Z,1005.72
2016-10-18T06:01:28.153Z,1005.71
2016-10-18T06:02:38.127Z,1005.74
2016-10-18T06:03:48.464Z,1005.75
2016-10-18T06:04:58.754Z,1005.74
2016-10-18T06:06:09.042Z,1005.74
2016-10-18T06:07:19.028Z,1005.75
2016-10-18T06:08:29.331Z,1005.77
2016-10-18T06:09:39.012Z,1005.7
2016-10-18T06:10:49.008Z,1005.73
2016-10-18T06:11:58.981Z,1005.72
2016-10-18T06:13:09.250Z,1005.75
2016-10-18T06:14:19.258Z,1005.79
2016-10-18T06:15:28.944Z,1005.76
2016-10-18T06:16:39.231Z,1005.82
2016-10-18T06:17:49.225Z,1005.86
2016-10-18T06:18:59.515Z,1005.85
2016-10-18T06:20:09.789Z,1005.85
2016-10-18T06:21:20.074Z,1005.83
2016-10-18T06:22:30.352Z,1005.89
2016-10-18T06:23:40.647Z,1005.88
2016-10-18T06:24:50.944Z,1005.87
2016-10-18T06:26:00.634Z,1005.92
2016-10-18T06:27:10.308Z,1005.88
2016-10-18T06:28:20.283Z,1005.89
2016-10-18T06:29:30.266Z,1005.91
2016-10-18T06:30:40.258Z,1005.93
2016-10-18T06:31:50.544Z,1005.93
2016-10-18T06:33:00.826Z,1005.97
2016-10-18T06:34:10.818Z,1005.97
2016-10-18T06:35:20.804Z,1005.96
2016-10-18T06:36:31.097Z,1005.98
2016-10-18T06:37:40.784Z,1005.95
2016-10-18T06:38:51.079Z,1005.95
2016-10-18T06:40:01.087Z,1005.98
2016-10-18T06:41:11.102Z,1005.95
2016-10-18T06:42:21.379Z,1005.95
2016-10-18T06:43:31.362Z,1005.99
2016-10-18T06:44:40.765Z,1005.95
2016-10-18T06:45:50.431Z,1006
2016-10-18T06:47:00.723Z,1006
2016-10-18T06:48:11.025Z,1005.96
2016-10-18T06:49:21.314Z,1006.03
2016-10-18T06:50:31.681Z,1006.07
2016-10-18T06:51:41.690Z,1006.04
2016-10-18T06:52:51.676Z,1006.07
2016-10-18T06:54:01.664Z,1006.05
2016-10-18T06:55:11.949Z,1006.08
2016-10-18T06:56:22.246Z,1006.06
2016-10-18T06:57:32.572Z,1006.09
2016-10-18T06:58:42.249Z,1006.09
2016-10-18T06:59:52.595Z,1006.06
2016-10-18T07:01:02.263Z,1006.14
2016-10-18T07:02:11.932Z,1006.18
2016-10-18T07:03:22.199Z,1006.15
2016-10-18T07:04:32.496Z,1006.18
2016-10-18T07:05:42.799Z,1006.18
2016-10-18T07:06:52.781Z,1006.16
2016-10-18T07:08:02.468Z,1006.11
2016-10-18T07:09:12.158Z,1006.14
2016-10-18T07:10:22.136Z,1006.11
2016-10-18T07:11:31.808Z,1006.09
2016-10-18T07:12:42.123Z,1006.12
2016-10-18T07:13:51.801Z,1006.11
2016-10-18T07:15:01.788Z,1006.07
2016-10-18T07:16:11.754Z,1006.01
2016-10-18T07:17:21.415Z,1006.08
2016-10-18T07:18:31.402Z,1006.12
2016-10-18T07:19:41.068Z,1006.08
2016-10-18T07:20:50.749Z,1006.09
2016-10-18T07:22:00.428Z,1006.12
2016-10-18T07:23:10.122Z,1006.1
2016-10-18T07:24:19.826Z,1006.12
2016-10-18T07:25:29.812Z,1006.14
2016-10-18T07:26:40.128Z,1006.14
2016-10-18T07:27:50.134Z,1006.15
2016-10-18T07:29:00.422Z,1006.14
2016-10-18T07:30:10.397Z,1006.1
2016-10-18T07:31:20.688Z,1006.15
2016-10-18T07:32:30.972Z,1006.14
2016-10-18T07:33:40.940Z,1006.13
2016-10-18T07:34:50.930Z,1006.14
2016-10-18T07:36:00.601Z,1006.17
2016-10-18T07:37:10.892Z,1006.14
2016-10-18T07:38:21.169Z,1006.14
2016-10-18T07:39:31.461Z,1006.17
2016-10-18T07:40:40.877Z,1006.16
2016-10-18T07:41:50.850Z,1006.19
2016-10-18T07:43:00.856Z,1006.17
2016-10-18T07:44:10.838Z,1006.14
2016-10-18T07:45:21.157Z,1006.13
2016-10-18T07:46:31.481Z,1006.16
2016-10-18T07:47:41.812Z,1006.13
2016-10-18T07:48:51.799Z,1006.16
2016-10-18T07:50:01.462Z,1006.1
2016-10-18T07:51:11.449Z,1006.15
2016-10-18T07:52:21.135Z,1006.15
2016-10-18T07:53:31.123Z,1006.1
2016-10-18T07:54:41.409Z,1006.1
2016-10-18T07:55:51.689Z,1006.11
2016-10-18T07:57:01.716Z,1006.09
2016-10-18T07:58:12.009Z,1006.14
2016-10-18T07:59:21.690Z,1006.19
2016-10-18T08:00:32.002Z,1006.18
2016-10-18T08:01:41.984Z,1006.16
2016-10-18T08:02:51.970Z,1006.14
2016-10-18T08:04:02.249Z,1006.14
2016-10-18T08:05:11.948Z,1006.13
2016-10-18T08:06:22.235Z,1006.16
2016-10-18T08:07:32.532Z,1006.13
2016-10-18T08:08:42.519Z,1006.13
2016-10-18T08:09:52.813Z,1006.15
2016-10-18T08:11:02.787Z,1006.17
2016-10-18T08:12:13.105Z,1006.19
2016-10-18T08:13:23.390Z,1006.18
2016-10-18T08:14:33.382Z,1006.2
2016-10-18T08:15:43.375Z,1006.21
2016-10-18T08:16:53.347Z,1006.17
2016-10-18T08:18:03.343Z,1006.18
2016-10-18T08:19:13.010Z,1006.22
2016-10-18T08:20:22.668Z,1006.2
2016-10-18T08:21:32.652Z,1006.2
2016-10-18T08:22:42.610Z,1006.22
2016-10-18T08:23:52.297Z,1006.22
2016-10-18T08:25:02.655Z,1006.22
2016-10-18T08:26:12.625Z,1006.2
2016-10-18T08:27:22.906Z,1006.19
2016-10-18T08:28:32.878Z,1006.2
2016-10-18T08:29:42.565Z,1006.17
2016-10-18T08:30:52.853Z,1006.2
2016-10-18T08:32:02.838Z,1006.22
2016-10-18T08:33:13.120Z,1006.24
2016-10-18T08:34:23.135Z,1006.24
2016-10-18T08:35:33.103Z,1006.25
2016-10-18T08:36:43.391Z,1006.28
2016-10-18T08:37:53.367Z,1006.28
2016-10-18T08:39:03.372Z,1006.22
2016-10-18T08:40:13.656Z,1006.24
2016-10-18T08:41:23.932Z,1006.24
2016-10-18T08:42:33.913Z,1006.25
2016-10-18T08:43:44.236Z,1006.23
2016-10-18T08:44:53.907Z,1006.28
2016-10-18T08:46:03.592Z,1006.27
2016-10-18T08:47:13.861Z,1006.27
2016-10-18T08:48:23.572Z,1006.29
2016-10-18T08:49:33.545Z,1006.29
2016-10-18T08:50:43.827Z,1006.32
2016-10-18T08:51:53.499Z,1006.34
2016-10-18T08:53:03.215Z,1006.33
2016-10-18T08:54:13.191Z,1006.33
2016-10-18T08:55:22.861Z,1006.37
2016-10-18T08:56:32.543Z,1006.33
2016-10-18T08:57:42.831Z,1006.31
2016-10-18T08:58:52.817Z,1006.35
2016-10-18T09:00:03.118Z,1006.35
2016-10-18T09:01:13.396Z,1006.35
2016-10-18T09:02:23.377Z,1006.34
2016-10-18T09:03:33.388Z,1006.37
2016-10-18T09:04:43.379Z,1006.34
2016-10-18T09:05:53.363Z,1006.33
2016-10-18T09:07:03.340Z,1006.37
2016-10-18T09:08:13.610Z,1006.37
2016-10-18T09:09:23.602Z,1006.36
2016-10-18T09:10:33.259Z,1006.36
2016-10-18T09:11:43.541Z,1006.38
2016-10-18T09:12:53.871Z,1006.34
2016-10-18T09:14:04.144Z,1006.38
2016-10-18T09:15:14.435Z,1006.34
2016-10-18T09:16:24.439Z,1006.33
2016-10-18T09:17:34.725Z,1006.28
2016-10-18T09:18:45.016Z,1006.3
2016-10-18T09:19:55.302Z,1006.33
2016-10-18T09:21:05.585Z,1006.32
2016-10-18T09:22:15.555Z,1006.34
2016-10-18T09:23:24.933Z,1006.35
2016-10-18T09:24:34.916Z,1006.32
2016-10-18T09:25:44.947Z,1006.35
2016-10-18T09:26:54.945Z,1006.35
2016-10-18T09:28:05.241Z,1006.36
2016-10-18T09:29:14.903Z,1006.35
2016-10-18T09:30:24.924Z,1006.36
2016-10-18T09:31:34.903Z,1006.39
2016-10-18T09:32:45.201Z,1006.38
2016-10-18T09:33:55.199Z,1006.41
2016-10-18T09:35:05.506Z,1006.34
2016-10-18T09:36:15.492Z,1006.32
2016-10-18T09:37:25.169Z,1006.34
2016-10-18T09:38:35.140Z,1006.34
2016-10-18T09:39:45.445Z,1006.3
2016-10-18T09:40:55.124Z,1006.31
2016-10-18T09:42:05.103Z,1006.3
2016-10-18T09:43:15.080Z,1006.31
2016-10-18T09:44:25.075Z,1006.32
2016-10-18T09:45:35.357Z,1006.31
2016-10-18T09:46:45.653Z,1006.3
2016-10-18T09:47:55.365Z,1006.3
2016-10-18T09:49:05.638Z,1006.27
2016-10-18T09:50:15.923Z,1006.29
2016-10-18T09:51:25.596Z,1006.28
2016-10-18T09:52:35.571Z,1006.3
2016-10-18T09:53:45.859Z,1006.31
2016-10-18T09:54:55.540Z,1006.34
2016-10-18T09:56:05.867Z,1006.33
2016-10-18T09:57:15.860Z,1006.33
2016-10-18T09:58:26.141Z,1006.31
2016-10-18T09:59:36.360Z,1006.3
2016-10-18T10:00:46.655Z,1006.31
2016-10-18T10:01:56.640Z,1006.32
2016-10-18T10:03:06.306Z,1006.33
2016-10-18T10:04:16.004Z,1006.32
2016-10-18T10:05:26.291Z,1006.31
2016-10-18T10:06:36.285Z,1006.34
2016-10-18T10:07:46.592Z,1006.31
2016-10-18T10:08:55.679Z,1006.31
2016-10-18T10:10:06.059Z,1006.28
2016-10-18T10:11:16.387Z,1006.27
2016-10-18T10:12:26.418Z,1006.3
2016-10-18T10:13:36.404Z,1006.26
2016-10-18T10:14:46.405Z,1006.3
2016-10-18T10:15:56.415Z,1006.28
2016-10-18T10:17:06.119Z,1006.31
2016-10-18T10:18:16.329Z,1006.29
2016-10-18T10:19:32.264Z,1006.3
2016-10-18T10:20:48.773Z,1006.28
2016-10-18T10:22:02.976Z,1006.25
2016-10-18T10:23:14.814Z,1006.26
2016-10-18T10:24:25.183Z,1006.25
2016-10-18T10:25:35.901Z,1006.28
2016-10-18T10:26:46.346Z,1006.26
2016-10-18T10:27:56.669Z,1006.27
2016-10-18T10:29:06.373Z,1006.24
2016-10-18T10:30:16.710Z,1006.29
2016-10-18T10:31:27.124Z,1006.27
2016-10-18T10:32:37.134Z,1006.23
2016-10-18T10:33:47.143Z,1006.26
2016-10-18T10:34:57.585Z,1006.22
2016-10-18T10:36:10.053Z,1006.23
2016-10-18T10:37:20.371Z,1006.23
2016-10-18T10:38:30.659Z,1006.24
2016-10-18T10:39:40.945Z,1006.2
2016-10-18T10:40:51.238Z,1006.23
2016-10-18T10:42:01.521Z,1006.19
2016-10-18T10:43:11.202Z,1006.19
2016-10-18T10:44:21.513Z,1006.15
2016-10-18T10:45:31.824Z,1006.13
2016-10-18T10:46:41.833Z,1006.13
2016-10-18T10:47:51.818Z,1006.14
2016-10-18T10:49:02.122Z,1006.11
2016-10-18T10:50:11.808Z,1006.09
2016-10-18T10:51:22.126Z,1006.08
2016-10-18T10:52:32.122Z,1006.08
2016-10-18T10:53:42.134Z,1006.07
2016-10-18T10:54:52.325Z,1006.04
2016-10-18T10:56:02.642Z,1006.01
2016-10-18T10:57:12.925Z,1006.04
2016-10-18T10:58:22.927Z,1006.06
2016-10-18T10:59:32.612Z,1005.97
2016-10-18T11:00:42.910Z,1006
2016-10-18T11:01:53.208Z,1005.98
2016-10-18T11:03:02.570Z,1006.04
2016-10-18T11:04:12.860Z,1005.99
2016-10-18T11:05:22.841Z,1006
2016-10-18T11:06:33.127Z,1006.01
2016-10-18T11:07:43.120Z,1005.97
2016-10-18T11:08:53.459Z,1005.98
2016-10-18T11:10:03.752Z,1005.96
2016-10-18T11:11:13.738Z,1005.98
2016-10-18T11:12:24.031Z,1005.96
2016-10-18T11:13:34.336Z,1005.96
2016-10-18T11:14:44.620Z,1005.97
2016-10-18T11:15:54.912Z,1005.92
2016-10-18T11:17:04.922Z,1005.92
2016-10-18T11:18:14.899Z,1005.92
2016-10-18T11:19:24.899Z,1005.9
2016-10-18T11:20:33.958Z,1005.91
2016-10-18T11:21:44.255Z,1005.88
2016-10-18T11:22:54.284Z,1005.84
2016-10-18T11:24:04.275Z,1005.84
2016-10-18T11:25:14.246Z,1005.83
2016-10-18T11:26:24.569Z,1005.84
2016-10-18T11:27:34.565Z,1005.83
2016-10-18T11:28:44.838Z,1005.86
2016-10-18T11:29:55.145Z,1005.85
2016-10-18T11:31:05.130Z,1005.82
2016-10-18T11:32:14.827Z,1005.83
2016-10-18T11:33:24.924Z,1005.85
2016-10-18T11:34:35.046Z,1005.82
2016-10-18T11:35:45.031Z,1005.81
2016-10-18T11:36:55.340Z,1005.79
2016-10-18T11:38:05.634Z,1005.8
2016-10-18T11:39:15.934Z,1005.78
2016-10-18T11:40:25.316Z,1005.79
2016-10-18T11:41:35.532Z,1005.78
2016-10-18T11:42:45.820Z,1005.76
2016-10-18T11:43:56.118Z,1005.75
2016-10-18T11:45:05.511Z,1005.79
2016-10-18T11:46:15.519Z,1005.77
2016-10-18T11:47:25.524Z,1005.77
2016-10-18T11:48:35.845Z,1005.8
2016-10-18T11:49:45.555Z,1005.77
2016-10-18T11:50:55.561Z,1005.77
2016-10-18T11:52:05.856Z,1005.78
2016-10-18T11:53:15.862Z,1005.81
2016-10-18T11:54:25.856Z,1005.74
2016-10-18T11:55:36.158Z,1005.78
2016-10-18T11:56:45.847Z,1005.76
2016-10-18T11:57:56.136Z,1005.78
2016-10-18T11:59:06.442Z,1005.78
2016-10-18T12:00:16.970Z,1005.73
2016-10-18T12:01:26.992Z,1005.74
2016-10-18T12:02:37.326Z,1005.73
2016-10-18T12:03:47.307Z,1005.73
2016-10-18T12:04:57.016Z,1005.71
2016-10-18T12:06:07.359Z,1005.65
2016-10-18T12:07:17.662Z,1005.69
2016-10-18T12:08:27.945Z,1005.65
2016-10-18T12:09:37.926Z,1005.66
2016-10-18T12:10:48.243Z,1005.67
2016-10-18T12:11:58.541Z,1005.71
2016-10-18T12:13:08.837Z,1005.72
2016-10-18T12:14:18.829Z,1005.67
2016-10-18T12:15:29.130Z,1005.68
2016-10-18T12:16:39.409Z,1005.68
2016-10-18T12:17:49.688Z,1005.63
2016-10-18T12:18:59.998Z,1005.63
2016-10-18T12:20:10.331Z,1005.64
2016-10-18T12:21:20.643Z,1005.64
2016-10-18T12:22:30.933Z,1005.64
2016-10-18T12:23:40.922Z,1005.62
2016-10-18T12:24:51.233Z,1005.6
2016-10-18T12:26:01.515Z,1005.62
2016-10-18T12:27:11.493Z,1005.6
2016-10-18T12:28:21.470Z,1005.59
2016-10-18T12:29:31.776Z,1005.55
2016-10-18T12:30:42.070Z,1005.53
2016-10-18T12:31:51.449Z,1005.47
2016-10-18T12:33:01.746Z,1005.52
2016-10-18T12:34:11.160Z,1005.5
2016-10-18T12:35:21.439Z,1005.47
2016-10-18T12:36:31.422Z,1005.48
2016-10-18T12:37:41.725Z,1005.45
2016-10-18T12:38:52.009Z,1005.46
2016-10-18T12:40:01.741Z,1005.46
2016-10-18T12:41:11.425Z,1005.44
2016-10-18T12:42:21.398Z,1005.46
2016-10-18T12:43:31.720Z,1005.46
2016-10-18T12:44:41.734Z,1005.46
2016-10-18T12:45:51.975Z,1005.45
2016-10-18T12:47:01.953Z,1005.44
2016-10-18T12:48:11.363Z,1005.45
2016-10-18T12:49:21.666Z,1005.4
2016-10-18T12:50:31.646Z,1005.39
2016-10-18T12:51:41.949Z,1005.39
2016-10-18T12:52:52.240Z,1005.38
2016-10-18T12:54:02.538Z,1005.36
2016-10-18T12:55:12.826Z,1005.43
2016-10-18T12:56:23.126Z,1005.43
2016-10-18T12:57:33.122Z,1005.43
2016-10-18T12:58:43.171Z,1005.39
2016-10-18T12:59:53.487Z,1005.37
2016-10-18T13:01:03.794Z,1005.36
2016-10-18T13:02:14.111Z,1005.36
2016-10-18T13:03:24.100Z,1005.3
2016-10-18T13:04:34.396Z,1005.33
2016-10-18T13:05:44.697Z,1005.35
2016-10-18T13:06:54.999Z,1005.36
2016-10-18T13:08:04.995Z,1005.34
2016-10-18T13:09:14.985Z,1005.3
2016-10-18T13:10:25.286Z,1005.3
2016-10-18T13:11:35.607Z,1005.32
2016-10-18T13:12:45.910Z,1005.33
2016-10-18T13:13:55.930Z,1005.3
2016-10-18T13:15:06.232Z,1005.3
2016-10-18T13:16:16.215Z,1005.29
2016-10-18T13:17:26.534Z,1005.29
2016-10-18T13:18:36.526Z,1005.31
2016-10-18T13:19:46.562Z,1005.38
2016-10-18T13:20:56.865Z,1005.31
2016-10-18T13:22:07.150Z,1005.3
2016-10-18T13:23:17.440Z,1005.31
2016-10-18T13:24:27.437Z,1005.32
2016-10-18T13:25:37.758Z,1005.31
2016-10-18T13:26:47.464Z,1005.31
2016-10-18T13:27:57.460Z,1005.28
2016-10-18T13:29:07.203Z,1005.29
2016-10-18T13:30:17.197Z,1005.29
2016-10-18T13:31:27.495Z,1005.27
2016-10-18T13:32:37.780Z,1005.27
2016-10-18T13:33:47.436Z,1005.23
2016-10-18T13:34:57.497Z,1005.27
2016-10-18T13:36:07.198Z,1005.27
2016-10-18T13:37:17.507Z,1005.27
2016-10-18T13:38:27.497Z,1005.28
2016-10-18T13:39:37.479Z,1005.25
2016-10-18T13:40:47.452Z,1005.25
2016-10-18T13:41:57.433Z,1005.26
2016-10-18T13:43:07.109Z,1005.22
2016-10-18T13:44:16.787Z,1005.26
2016-10-18T13:45:26.790Z,1005.21
2016-10-18T13:46:36.159Z,1005.17
2016-10-18T13:47:46.457Z,1005.18
2016-10-18T13:48:56.443Z,1005.19
2016-10-18T13:50:05.794Z,1005.21
2016-10-18T13:51:15.163Z,1005.14
2016-10-18T13:52:25.461Z,1005.17
2016-10-18T13:53:35.822Z,1005.18
2016-10-18T13:54:46.114Z,1005.16
2016-10-18T13:55:55.814Z,1005.16
2016-10-18T13:57:06.159Z,1005.16
2016-10-18T13:58:16.446Z,1005.13
2016-10-18T13:59:26.444Z,1005.16
2016-10-18T14:00:36.746Z,1005.09
2016-10-18T14:01:46.742Z,1005.13
2016-10-18T14:02:57.039Z,1005.16
2016-10-18T14:04:07.051Z,1005.13
2016-10-18T14:05:17.345Z,1005.15
2016-10-18T14:06:27.626Z,1005.11
2016-10-18T14:07:37.944Z,1005.14
2016-10-18T14:08:47.925Z,1005.12
2016-10-18T14:09:58.218Z,1005.11
2016-10-18T14:11:08.517Z,1005.07
2016-10-18T14:12:18.534Z,1005.06
2016-10-18T14:13:28.523Z,1005.08
2016-10-18T14:14:38.202Z,1005.07
2016-10-18T14:15:48.194Z,1005.07
2016-10-18T14:16:58.158Z,1005.08
2016-10-18T14:18:08.216Z,1005.05
2016-10-18T14:19:18.271Z,1005.09
2016-10-18T14:20:28.555Z,1005.08
2016-10-18T14:21:38.596Z,1005.06
2016-10-18T14:22:48.584Z,1005.06
2016-10-18T14:23:58.552Z,1005.07
2016-10-18T14:25:08.547Z,1005.04
2016-10-18T14:26:18.861Z,1005.02
2016-10-18T14:27:28.847Z,1005.06
2016-10-18T14:28:38.828Z,1005.03
2016-10-18T14:29:49.142Z,1005.08
2016-10-18T14:30:59.120Z,1005.06
2016-10-18T14:32:09.112Z,1005.05
2016-10-18T14:33:19.097Z,1005.09
2016-10-18T14:34:29.421Z,1005.08
2016-10-18T14:35:39.698Z,1005.06
2016-10-18T14:36:49.982Z,1005.05
2016-10-18T14:38:00.278Z,1005.06
2016-10-18T14:39:10.591Z,1005.04
2016-10-18T14:40:20.892Z,1005.04
2016-10-18T14:41:30.886Z,1004.99
2016-10-18T14:42:40.572Z,1004.99